Omak, WA

14:34 PDT le 21 octobre 2014 (GMT -0700)
Omak | Change Station
CLOSE
Current Station
Aéroport
Location: Omak,
Altitude: 1302 ft
Stations météo à proximité

Alt. 1302 ft 48.46 °N, 119.52 °W | Updated 41 minutes ago

Partiellement nuageux
Partiellement nuageux
61 ° F
Paraît 61 ° F
N
14
Vent Variable Vent de SSE

Aujourd'hui
Haut(e) -- | Bas -- ° F
--% Risque de précip.
Hier
Haut(e) -- | Bas -- ° F
Precip. -- pouce
7:27 AM 5:57 PM
Lune descendante, 4% visible
Pression 29.87 pouce
Visibilité 10.0 Miles terrestres
Nuages Nuages épars 3300 ft
Point de rosée 44 ° F
Humidité 54%
Précipitations 0.00 pouce
Profondeur de la couche neigeuse Non disponible.
UV 2 sur 12
Pollen 2.00 sur 12
Qualité de l'air Non disponible.
Flu Activity Sporadic
METAR KOMK 212053Z AUTO 16012KT 10SM SCT033 16/07 A2987 RMK AO2 SLP115 T01610067 56001

More Conditions Fewer Conditions

Pression 29.87 pouce
Visibilité 10.0 Miles terrestres
Nuages Nuages épars 3300 ft
Point de rosée 44 ° F
Humidité 54%
Précipitations 0.00 pouce
Profondeur de la couche neigeuse Non disponible.
UV 2 sur 12
Pollen 2.00 sur 12
Qualité de l'air Non disponible.
Flu Activity Sporadic
METAR KOMK 212053Z AUTO 16012KT 10SM SCT033 16/07 A2987 RMK AO2 SLP115 T01610067 56001

More Conditions Fewer Conditions

10-Day Weather Forecast

Almanac

Astronomie

Oct. 21, 2014 Lever Coucher
Temps réel 07:27 PDT 17:57 PDT
Crépuscule civil 06:55 PDT 18:29 PDT
Crépuscule nautique 06:18 PDT 19:05 PDT
Crépuscule astronomique 05:42 PDT 19:41 PDT
Lune 05:06 PDT 17:01 PDT
Durée de lumière visible 11h 34m
Longueur du jour
10h 30m
Tomorrow will be 3m 21s shorter.
Lune descendante, 4% of the Moon is Illuminated
Aujourd'hui
Lune descendante
Oct 23
Nouveau
Oct 30
Premier quartier
Nov 6
Pleine lune
Nov 14
Dernier quartier

Extrêmes aujourd'hui

State Highs State Lows

Community

WunderPhotos

Upload Photos

1,763,779 Photos téléchargées !

Nearby

Épaisseur de neige

Station Depth Altitude
Moses Mountain 0 in 5300 ft
Harts Pass 0 in 6500 ft
Rainy Pass 0 in 4780 ft
Sentinel Butte 0 in 4920 ft
Pope Ridge 0 in 3540 ft

Activité sismique

Ville Distance Mag. Time & Date
No recent earthquake activity has been reported nearby.
Minimum magnitude displayed is 2.5.

Températures des eaux côtières

Lieu Température
Aucun rapport de station

Stations météo à proximité